ADDS METAR Data INFO
IDs: Format: Raw Decoded Include TAF

Data at: 0402 UTC 23 Sep 2017

KSWW 230355Z AUTO 13015G20KT 10SM CLR 27/17 A2994 RMK AO2 T02700167
KSWW 230335Z AUTO 12012KT 10SM CLR 27/16 A2994 RMK AO2 T02730163
KSWW 230315Z AUTO 12009KT 10SM CLR 27/16 A2993 RMK AO2 T02720161
KSWW 230255Z AUTO 12009KT 10SM CLR 28/16 A2992 RMK AO2 T02760160
KSWW 230235Z AUTO 12008KT 10SM CLR 28/16 A2992 RMK AO2 T02800160
KSWW 230215Z AUTO 12008KT 10SM CLR 28/16 A2991 RMK AO2 T02810160
KSWW 230155Z AUTO 11009KT 10SM CLR 29/16 A2991 RMK AO2 T02850158
KSWW 230135Z AUTO 11008KT 10SM CLR 29/16 A2991 RMK AO2 T02870155
KSWW 230115Z AUTO 11010KT 10SM CLR 30/15 A2990 RMK AO2 T02950152
KSWW 230055Z AUTO 12010KT 10SM CLR 30/15 A2990 RMK AO2 T02970153
KSWW 230035Z AUTO 12007KT 10SM CLR 30/14 A2990 RMK AO2 T03040140
KSWW 230015Z AUTO 14011KT 10SM CLR 31/14 A2990 RMK AO2 T03110137
KSWW 222355Z AUTO 15010KT 10SM CLR 32/14 A2990 RMK AO2 T03180137 10341 20311
KSWW 222335Z AUTO 14013KT 10SM CLR 32/14 A2990 RMK AO2 T03220137
KSWW 222315Z AUTO 14011G15KT 10SM CLR 33/14 A2990 RMK AO2 T03260138
KSWW 222255Z AUTO 14012KT 10SM SCT065 SCT080 32/14 A2990 RMK AO2 T03210139
KSWW 222235Z AUTO 16010G13KT 10SM SCT065 33/14 A2990 RMK AO2 T03270137
KSWW 222215Z AUTO 16013G19KT 10SM SCT060 SCT075 SCT095 34/14 A2990 RMK AO2 T03350143
KSWW 222155Z AUTO 13011G17KT 10SM SCT060 SCT075 SCT085 32/15 A2991 RMK AO2 T03180145
KSWW 222135Z AUTO 14014G20KT 10SM SCT060 SCT075 SCT085 34/15 A2991 RMK AO2 T03370149
KSWW 222115Z AUTO 14016G21KT 10SM SCT060 SCT080 34/15 A2991 RMK AO2 T03410150
KSWW 222055Z AUTO 14015G22KT 10SM SCT060 SCT080 34/15 A2992 RMK AO2 T03380149
KSWW 222035Z AUTO 15014G20KT 10SM SCT060 SCT070 SCT080 34/15 A2992 RMK AO2 T03360151
KSWW 222015Z AUTO 13016G19KT 10SM SCT060 SCT075 33/15 A2993 RMK AO2 T03290153
KSWW 221955Z AUTO 13013KT 10SM SCT050 BKN070 32/16 A2994 RMK AO2 T03210156
KSWW 221935Z AUTO 14012G17KT 10SM SCT050 BKN070 33/16 A2994 RMK AO2 T03310159
KSWW 221915Z AUTO 15013G19KT 10SM BKN050 BKN075 33/16 A2995 RMK AO2 T03300160
KSWW 221855Z AUTO 17012G21KT 10SM BKN050 BKN075 32/17 A2996 RMK AO2 T03220165
KSWW 221835Z AUTO 15014G20KT 10SM SCT050 31/17 A2996 RMK AO2 T03120167
KSWW 221815Z AUTO 18014G18KT 10SM SCT044 32/17 A2997 RMK AO2 T03190171
KSWW 221755Z AUTO 17015G23KT 10SM SCT044 31/18 A2998 RMK AO2 T03090176 10311 20220
KSWW 221735Z AUTO 19014G18KT 10SM CLR 31/18 A2998 RMK AO2 T03070181
KSWW 221715Z AUTO 18014KT 10SM CLR 30/18 A2999 RMK AO2 T03000184
KSWW 221655Z AUTO 16014G20KT 10SM CLR 29/19 A2999 RMK AO2 T02910187
KSWW 221635Z AUTO 16014KT 130V190 10SM CLR 29/19 A2999 RMK AO2 T02860190
KSWW 221615Z AUTO 14013G19KT 10SM CLR 28/19 A3000 RMK AO2 T02800193
KSWW 221555Z AUTO 17017G23KT 10SM CLR 28/19 A3000 RMK AO2 T02760192
KSWW 221535Z AUTO 17019G23KT 10SM CLR 27/20 A3000 RMK AO2 T02700195
KSWW 221515Z AUTO 16018G22KT 10SM CLR 26/20 A2999 RMK AO2 T02640196
KSWW 221455Z AUTO 17017G22KT 10SM CLR 26/20 A2999 RMK AO2 T02570198
KSWW 221435Z AUTO 16017G22KT 10SM SCT020 25/20 A2999 RMK AO2 T02470201
KSWW 221415Z AUTO 16013G18KT 10SM OVC018 24/20 A2998 RMK AO2 T02420202
KSWW 221355Z AUTO 15014G17KT 10SM SCT012 BKN018 24/20 A2998 RMK AO2 T02350202
KSWW 221335Z AUTO 16010KT 10SM SCT010 SCT018 23/20 A2998 RMK AO2 T02300201
KSWW 221315Z AUTO 16009KT 10SM CLR 22/20 A2998 RMK AO2 T02230200
KSWW 221255Z AUTO 16010G15KT 10SM CLR 22/20 A2998 RMK AO2 T02210199
KSWW 221235Z AUTO 17010KT 10SM SCT014 22/20 A2997 RMK AO2 T02210197
KSWW 221215Z AUTO 16011KT 10SM CLR 22/20 A2997 RMK AO2 T02200195
KSWW 221155Z AUTO 15011G16KT 10SM SCT016 22/19 A2997 RMK AO2 T02220192 10263 20221
KSWW 221135Z AUTO 15010KT 10SM BKN014 23/19 A2996 RMK AO2 T02260192
KSWW 221115Z AUTO 15014KT 10SM BKN014 23/19 A2996 RMK AO2 T02250191
KSWW 221055Z AUTO 15014G19KT 10SM CLR 22/19 A2995 RMK AO2 T02210186
KSWW 221035Z AUTO 14012KT 10SM CLR 22/18 A2995 RMK AO2 T02230182
KSWW 221015Z AUTO 15014G19KT 10SM CLR 23/18 A2995 RMK AO2 T02260180
KSWW 220955Z AUTO 14012G16KT 10SM CLR 23/18 A2995 RMK AO2 T02270178
KSWW 220935Z AUTO 14012G15KT 10SM CLR 23/18 A2995 RMK AO2 T02300178
KSWW 220915Z AUTO 14011KT 10SM CLR 23/18 A2994 RMK AO2 T02310180
KSWW 220855Z AUTO 14010KT 10SM CLR 24/18 A2995 RMK AO2 T02360182
KSWW 220835Z AUTO 15011KT 10SM CLR 24/18 A2995 RMK AO2 T02380182
KSWW 220815Z AUTO 14010G15KT 10SM CLR 24/18 A2995 RMK AO2 T02410180
KSWW 220755Z AUTO 15010G16KT 10SM CLR 25/18 A2995 RMK AO2 T02450177
KSWW 220735Z AUTO 15012KT 10SM CLR 25/18 A2995 RMK AO2 T02490175
KSWW 220715Z AUTO 15012KT 10SM CLR 25/17 A2995 RMK AO2 T02510172
KSWW 220655Z AUTO 15011KT 10SM CLR 25/17 A2995 RMK AO2 T02530170
KSWW 220635Z AUTO 15009KT 10SM CLR 26/17 A2995 RMK AO2 T02560166
KSWW 220615Z AUTO 15011G14KT 10SM CLR 26/16 A2995 RMK AO2 T02580163
KSWW 220555Z AUTO 15011KT 10SM CLR 27/16 A2995 RMK AO2 T02650162 10329 20265 403650230
KSWW 220535Z AUTO 14011KT 10SM CLR 27/16 A2995 RMK AO2 T02670161
KSWW 220515Z AUTO 15010KT 10SM CLR 27/16 A2995 RMK AO2 T02700161
KSWW 220455Z AUTO 15011KT 10SM CLR 27/16 A2995 RMK AO2 T02720160
KSWW 220435Z AUTO 15009KT 10SM CLR 28/16 A2995 RMK AO2 T02770160
KSWW 220415Z AUTO 15011KT 10SM CLR 28/16 A2995 RMK AO2 T02800158
KSWW 220355Z AUTO 15011G17KT 10SM CLR 29/16 A2995 RMK AO2 T02850158
KSWW 220335Z AUTO 14012G18KT 10SM CLR 29/16 A2994 RMK AO2 T02870156
KSWW 220315Z AUTO 14014G18KT 10SM CLR 29/15 A2994 RMK AO2 T02900153
KSWW 220255Z AUTO 14012G18KT 10SM CLR 29/15 A2993 RMK AO2 T02900153
KSWW 220235Z AUTO 14010KT 10SM CLR 29/15 A2992 RMK AO2 T02920153
KSWW 220215Z AUTO 14009KT 10SM CLR 29/15 A2992 RMK AO2 T02940151
KSWW 220155Z AUTO 14008KT 10SM CLR 30/15 A2991 RMK AO2 T02960150
KSWW 220135Z AUTO 13009KT 10SM CLR 30/15 A2990 RMK AO2 T03020150
KSWW 220115Z AUTO 13009KT 10SM CLR 30/15 A2990 RMK AO2 T03040147
KSWW 220055Z AUTO 13009KT 10SM CLR 31/15 A2990 RMK AO2 T03100145
KSWW 220035Z AUTO 13009KT 10SM CLR 32/15 A2990 RMK AO2 T03170145
KSWW 220015Z AUTO 13013G18KT 10SM CLR 32/14 A2989 RMK AO2 T03230144
KSWW 212355Z AUTO 13016G21KT 10SM CLR 33/15 A2988 RMK AO2 T03300146 10365 20330
KSWW 212335Z AUTO 13012KT 10SM CLR 34/13 A2988 RMK AO2 T03400126
KSWW 212315Z AUTO 13012G18KT 10SM CLR 35/13 A2988 RMK AO2 T03460131
KSWW 212255Z AUTO 15015G19KT 10SM CLR 34/13 A2987 RMK AO2 T03400132
KSWW 212235Z AUTO 12013G17KT 10SM CLR 36/13 A2987 RMK AO2 T03560127
KSWW 212215Z AUTO 13012G19KT 10SM SCT080 36/13 A2987 RMK AO2 T03580130
KSWW 212155Z AUTO 14014G22KT 10SM SCT080 37/13 A2988 RMK AO2 T03650131
KSWW 212135Z AUTO 17015G19KT 10SM SCT080 36/13 A2988 RMK AO2 T03610125
KSWW 212115Z AUTO 17013G21KT 10SM SCT080 36/13 A2989 RMK AO2 T03640126
KSWW 212055Z AUTO 19013G22KT 10SM CLR 36/13 A2989 RMK AO2 T03610133
KSWW 212035Z AUTO 16012G20KT 10SM CLR 36/13 A2991 RMK AO2 T03600131
KSWW 212015Z AUTO 15011G19KT 10SM CLR 36/14 A2991 RMK AO2 T03630144
KSWW 211955Z AUTO 16011G18KT 10SM CLR 36/15 A2992 RMK AO2 T03570146
KSWW 211935Z AUTO 17016G21KT 10SM CLR 36/15 A2993 RMK AO2 T03560147
KSWW 211915Z AUTO 17014G20KT 10SM CLR 36/15 A2994 RMK AO2 T03550154
KSWW 211855Z AUTO 18013G19KT 10SM CLR 35/17 A2995 RMK AO2 T03500165
KSWW 211835Z AUTO 18014G22KT 10SM CLR 35/17 A2995 RMK AO2 T03460165
KSWW 211815Z AUTO 18014G20KT 10SM CLR 34/18 A2996 RMK AO2 T03440177
KSWW 211755Z AUTO 16013G21KT 10SM CLR 34/18 A2997 RMK AO2 T03390181 10340 20230
KSWW 211735Z AUTO 19014G22KT 10SM CLR 33/18 A2997 RMK AO2 T03300182
KSWW 211715Z AUTO 19018G22KT 10SM CLR 32/18 A2998 RMK AO2 T03230183
KSWW 211655Z AUTO 19018G24KT 10SM CLR 32/19 A2998 RMK AO2 T03180185
KSWW 211635Z AUTO 20018G23KT 10SM CLR 31/19 A2999 RMK AO2 T03110185
KSWW 211615Z AUTO 19017KT 10SM CLR 31/19 A2999 RMK AO2 T03070189